Time;durP1;ratioP1;P1;durP2;ratioP2;P2;SDS_P1;SDS_P2;PMS_P1;PMS_P2;Temp;Humidity;BMP_temperature;BMP_pressure;BME280_temperature;BME280_humidity;BME280_pressure;Samples;Min_cycle;Max_cycle;Signal;HPM_P1;HPM_P2
2021/12/07 00:01:36;;;;;;;53.10;23.73;;;-1.40;99.90;;;;;;5051416;28;20021;-75
2021/12/07 00:04:03;;;;;;;50.20;22.83;;;-1.40;99.90;;;;;;5049977;28;20024;-75
2021/12/07 00:06:28;;;;;;;44.38;23.25;;;-1.40;99.90;;;;;;5051271;28;20021;-75
2021/12/07 00:08:56;;;;;;;48.00;22.77;;;-1.40;99.90;;;;;;5051189;28;20378;-75
2021/12/07 00:11:24;;;;;;;45.17;22.40;;;-1.40;99.90;;;;;;5051256;28;20020;-75
2021/12/07 00:13:50;;;;;;;45.22;20.67;;;-1.40;99.90;;;;;;5049848;28;20060;-75
2021/12/07 00:16:18;;;;;;;54.33;23.05;;;-1.50;99.90;;;;;;5049838;28;20477;-74
2021/12/07 00:18:45;;;;;;;41.78;19.75;;;-1.40;99.90;;;;;;5049723;28;20360;-74
2021/12/07 00:21:11;;;;;;;42.65;21.45;;;-1.50;99.90;;;;;;5051040;28;20426;-74
2021/12/07 00:23:37;;;;;;;41.28;20.67;;;-1.50;99.90;;;;;;5049697;28;20029;-75
2021/12/07 00:26:05;;;;;;;43.30;19.75;;;-1.50;99.90;;;;;;5049820;28;20021;-75
2021/12/07 00:28:31;;;;;;;46.85;23.25;;;-1.50;99.90;;;;;;5049546;28;20021;-74
2021/12/07 00:31:08;;;;;;;50.50;24.40;;;-1.50;99.90;;;;;;5049642;27;20482;-75
2021/12/07 00:33:42;;;;;;;46.00;21.02;;;-1.50;99.90;;;;;;5049844;28;20037;-75
2021/12/07 00:36:08;;;;;;;40.10;21.20;;;-1.50;99.90;;;;;;5049559;27;20397;-75
2021/12/07 00:38:34;;;;;;;43.67;22.40;;;-1.50;99.90;;;;;;5049506;28;20117;-75
2021/12/07 00:41:01;;;;;;;36.20;20.08;;;-1.50;99.90;;;;;;5050716;28;20394;-75
2021/12/07 00:43:29;;;;;;;39.33;19.48;;;-1.50;99.90;;;;;;5050482;28;20567;-75
2021/12/07 00:45:57;;;;;;;38.58;19.40;;;-1.60;99.90;;;;;;5050600;28;20394;-75
2021/12/07 00:48:23;;;;;;;35.97;19.52;;;-1.60;99.90;;;;;;5049464;28;20068;-75
2021/12/07 00:50:49;;;;;;;42.42;21.52;;;-1.60;99.90;;;;;;5049176;28;20055;-77
2021/12/07 00:53:17;;;;;;;40.28;19.58;;;-1.70;99.90;;;;;;5050543;28;20561;-78
2021/12/07 00:55:47;;;;;;;46.38;20.33;;;-1.60;99.90;;;;;;5050443;28;20056;-77
2021/12/07 00:58:19;;;;;;;45.20;21.92;;;-1.60;99.90;;;;;;5050396;28;20044;-78
2021/12/07 01:00:48;;;;;;;40.90;19.88;;;-1.60;99.90;;;;;;5049413;28;20029;-77
2021/12/07 01:03:14;;;;;;;42.80;22.95;;;-1.60;99.90;;;;;;5049117;28;20032;-78
2021/12/07 01:05:46;;;;;;;44.58;20.40;;;-1.60;99.90;;;;;;5050295;28;20032;-78
2021/12/07 01:08:21;;;;;;;38.47;19.58;;;-1.70;99.90;;;;;;5049330;27;20037;-78
2021/12/07 01:24:43;;;;;;;43.97;19.52;;;-1.70;99.90;;;;;;5050048;28;20081;-77
2021/12/07 01:27:12;;;;;;;44.47;20.42;;;-1.80;99.90;;;;;;5050108;28;20028;-77
2021/12/07 01:29:40;;;;;;;43.88;22.80;;;-1.70;99.90;;;;;;5049890;28;20398;-77
2021/12/07 01:35:29;;;;;;;51.10;22.42;;;-1.70;99.90;;;;;;5050326;28;20032;-77
2021/12/07 01:40:45;;;;;;;49.45;23.13;;;-1.80;99.90;;;;;;5049874;28;20547;-75
2021/12/07 01:43:54;;;;;;;50.13;23.42;;;-1.80;99.90;;;;;;5049819;28;20029;-75
2021/12/07 01:46:46;;;;;;;50.08;23.13;;;-1.80;99.90;;;;;;5049620;27;20045;-75
2021/12/07 01:59:47;;;;;;;52.75;25.70;;;-1.80;99.90;;;;;;5049944;28;20053;-75
2021/12/07 02:02:16;;;;;;;50.22;22.73;;;-1.90;99.90;;;;;;5048332;28;20104;-75
2021/12/07 02:04:43;;;;;;;49.20;22.27;;;-1.90;99.90;;;;;;5049520;28;20025;-75
2021/12/07 02:07:10;;;;;;;59.67;25.42;;;-1.90;99.90;;;;;;5048315;28;20025;-75
2021/12/07 02:09:39;;;;;;;61.15;26.33;;;-1.80;99.90;;;;;;5049401;28;20037;-76
2021/12/07 02:12:07;;;;;;;53.85;26.23;;;-1.90;99.90;;;;;;5048158;28;20021;-75
2021/12/07 02:14:32;;;;;;;56.05;25.38;;;-1.80;99.90;;;;;;5048159;28;20021;-75
2021/12/07 02:17:02;;;;;;;61.33;28.20;;;-1.80;99.90;;;;;;5049458;28;20040;-75
2021/12/07 02:19:28;;;;;;;59.65;26.63;;;-1.80;99.90;;;;;;5049350;28;20021;-75
2021/12/07 02:21:57;;;;;;;57.70;26.45;;;-2.00;99.90;;;;;;5049358;28;20397;-75
2021/12/07 02:24:23;;;;;;;60.97;25.35;;;-2.00;99.90;;;;;;5047949;27;20029;-75
2021/12/07 02:26:49;;;;;;;55.10;25.50;;;-1.90;99.90;;;;;;5048099;28;20054;-75
2021/12/07 02:29:16;;;;;;;54.08;24.30;;;-2.00;99.90;;;;;;5047912;28;20025;-75
2021/12/07 02:31:43;;;;;;;58.88;24.88;;;-1.90;99.90;;;;;;5049228;28;20029;-75
2021/12/07 02:34:09;;;;;;;63.92;24.73;;;-2.00;99.90;;;;;;5047749;28;20028;-75
2021/12/07 02:36:36;;;;;;;51.45;23.25;;;-2.00;99.90;;;;;;5049223;28;20061;-76
2021/12/07 02:39:04;;;;;;;56.42;24.02;;;-2.00;99.90;;;;;;5049118;28;20033;-75
2021/12/07 02:41:30;;;;;;;57.95;25.80;;;-2.00;99.90;;;;;;5047865;28;20033;-76
2021/12/07 02:43:55;;;;;;;59.10;24.70;;;-1.90;99.90;;;;;;5047873;28;20025;-76
2021/12/07 02:46:21;;;;;;;54.95;25.05;;;-1.90;99.90;;;;;;5047814;28;20418;-76
2021/12/07 02:48:47;;;;;;;51.28;25.33;;;-2.00;99.90;;;;;;5048580;27;20119;-75
2021/12/07 02:51:12;;;;;;;55.03;22.95;;;-1.90;99.90;;;;;;5052366;28;20035;-76
2021/12/07 02:53:38;;;;;;;52.38;24.00;;;-1.90;99.90;;;;;;5051134;28;20017;-75
2021/12/07 02:56:06;;;;;;;60.65;24.95;;;-1.90;99.90;;;;;;5052385;28;20025;-75
2021/12/07 02:58:32;;;;;;;56.42;24.90;;;-1.90;99.90;;;;;;5051064;27;20045;-75
2021/12/07 03:01:09;;;;;;;55.92;24.95;;;-1.90;99.90;;;;;;5051075;28;20052;-75
2021/12/07 03:03:41;;;;;;;52.75;23.13;;;-1.90;99.90;;;;;;5052284;28;20025;-76
2021/12/07 03:06:21;;;;;;;60.35;25.40;;;-1.90;99.90;;;;;;5052335;28;20104;-76
2021/12/07 03:27:51;;;;;;;70.45;26.83;;;-2.00;99.90;;;;;;5052247;28;20032;-75
2021/12/07 03:30:17;;;;;;;72.93;29.20;;;-2.00;99.90;;;;;;5051745;28;20044;-75
2021/12/07 03:32:42;;;;;;;81.97;32.13;;;-2.10;99.90;;;;;;5050556;28;20033;-75
2021/12/07 03:35:08;;;;;;;77.97;29.08;;;-2.10;99.90;;;;;;5050464;28;20048;-75
2021/12/07 03:37:34;;;;;;;70.80;29.58;;;-2.20;99.90;;;;;;5050469;28;20021;-76
2021/12/07 03:39:59;;;;;;;73.47;30.88;;;-2.20;99.90;;;;;;5051678;28;20033;-76
2021/12/07 03:42:25;;;;;;;75.88;28.60;;;-2.10;99.90;;;;;;5050380;27;20389;-77
2021/12/07 03:44:51;;;;;;;72.72;27.23;;;-2.10;99.90;;;;;;5050499;27;20522;-75
2021/12/07 03:47:16;;;;;;;75.53;27.52;;;-2.10;99.90;;;;;;5051614;28;20462;-75
2021/12/07 03:49:42;;;;;;;81.68;28.42;;;-2.10;99.90;;;;;;5050112;28;20398;-75
2021/12/07 03:52:07;;;;;;;73.68;28.20;;;-2.00;99.90;;;;;;5050243;28;20116;-75
2021/12/07 03:54:33;;;;;;;69.45;25.23;;;-2.10;99.90;;;;;;5050175;28;20028;-75
2021/12/07 03:56:59;;;;;;;69.80;28.90;;;-2.10;99.90;;;;;;5050171;28;20040;-75
2021/12/07 03:59:24;;;;;;;69.35;28.70;;;-2.10;99.90;;;;;;5051094;28;20049;-75
2021/12/07 04:01:51;;;;;;;68.57;25.90;;;-2.10;99.90;;;;;;5051353;28;20021;-75
2021/12/07 04:04:18;;;;;;;62.55;25.33;;;-2.10;99.90;;;;;;5051235;28;20025;-74
2021/12/07 04:06:43;;;;;;;59.00;25.90;;;-2.10;99.90;;;;;;5051310;28;20040;-75
2021/12/07 04:09:09;;;;;;;61.53;25.30;;;-2.10;99.90;;;;;;5051089;28;20398;-75
2021/12/07 04:11:35;;;;;;;62.92;26.85;;;-2.10;99.90;;;;;;5051208;28;20078;-75
2021/12/07 04:14:00;;;;;;;68.68;27.33;;;-2.20;99.90;;;;;;5051101;28;20411;-75
2021/12/07 04:16:26;;;;;;;71.78;25.17;;;-2.20;99.90;;;;;;5051073;28;20026;-74
2021/12/07 04:18:52;;;;;;;60.17;24.20;;;-2.10;99.90;;;;;;5049803;27;20386;-75
2021/12/07 04:21:18;;;;;;;74.60;27.92;;;-2.10;99.90;;;;;;5051026;28;20029;-75
2021/12/07 04:23:44;;;;;;;62.97;25.35;;;-2.10;99.90;;;;;;5050967;28;20554;-75
2021/12/07 04:26:12;;;;;;;63.63;25.65;;;-2.10;99.90;;;;;;5050935;28;20017;-75
2021/12/07 04:28:38;;;;;;;66.15;25.23;;;-2.00;99.90;;;;;;5050980;28;20513;-75
2021/12/07 04:31:04;;;;;;;69.50;25.88;;;-2.00;99.90;;;;;;5049698;28;20463;-75
2021/12/07 04:33:30;;;;;;;62.72;24.67;;;-2.00;99.90;;;;;;5050844;28;20026;-75
2021/12/07 04:35:56;;;;;;;54.38;22.00;;;-2.10;99.90;;;;;;5050821;28;20025;-74
2021/12/07 04:38:23;;;;;;;58.95;24.20;;;-2.10;99.90;;;;;;5049532;28;20069;-74
2021/12/07 04:40:48;;;;;;;59.45;26.20;;;-2.10;99.90;;;;;;5050709;28;20103;-75
2021/12/07 04:43:14;;;;;;;58.83;22.55;;;-2.10;99.90;;;;;;5049143;27;20541;-75
2021/12/07 04:59:03;;;;;;;57.47;24.58;;;-2.10;99.90;;;;;;5050404;28;20096;-75
2021/12/07 05:01:29;;;;;;;64.28;27.45;;;-2.00;99.90;;;;;;5050476;28;20044;-75
2021/12/07 05:03:58;;;;;;;61.70;24.08;;;-2.10;99.90;;;;;;5049159;27;20017;-75
2021/12/07 05:06:28;;;;;;;67.63;26.23;;;-2.10;99.90;;;;;;5049091;27;20029;-75
2021/12/07 05:09:03;;;;;;;64.50;26.95;;;-2.10;99.90;;;;;;5049320;28;20493;-75
2021/12/07 05:11:44;;;;;;;66.80;25.92;;;-2.10;99.90;;;;;;5049655;28;20029;-74
2021/12/07 05:24:52;;;;;;;63.30;26.15;;;-2.20;99.90;;;;;;5050119;28;20052;-76
2021/12/07 05:38:19;;;;;;;73.47;25.05;;;-2.20;99.90;;;;;;5049872;28;20092;-76
2021/12/07 05:40:44;;;;;;;73.28;26.65;;;-2.20;99.90;;;;;;5130032;27;20318;-76
2021/12/07 05:43:10;;;;;;;77.63;29.58;;;-2.10;99.90;;;;;;5151115;27;20159;-75
2021/12/07 05:45:37;;;;;;;79.55;27.75;;;-2.20;99.90;;;;;;5152497;27;20125;-75
2021/12/07 05:48:05;;;;;;;72.30;27.77;;;-2.20;99.90;;;;;;5152868;27;20029;-76
2021/12/07 05:50:33;;;;;;;71.95;26.08;;;-2.20;99.90;;;;;;5152951;27;20042;-76
2021/12/07 05:53:01;;;;;;;70.47;26.10;;;-2.20;99.90;;;;;;5152070;27;20155;-76
2021/12/07 05:55:27;;;;;;;77.68;26.38;;;-2.30;99.90;;;;;;5153740;27;20022;-76
2021/12/07 05:57:54;;;;;;;82.70;29.30;;;-2.30;99.90;;;;;;5152589;27;20125;-76
2021/12/07 06:00:25;;;;;;;78.28;28.83;;;-2.30;99.90;;;;;;5152440;27;20027;-76
2021/12/07 06:02:53;;;;;;;100.93;35.28;;;-2.30;99.90;;;;;;5152438;27;20019;-76
2021/12/07 06:05:18;;;;;;;118.80;46.30;;;-2.40;99.90;;;;;;5150946;27;20018;-76
2021/12/07 06:07:44;;;;;;;82.07;33.60;;;-2.40;99.90;;;;;;5151028;27;20019;-76
2021/12/07 06:10:09;;;;;;;79.35;33.42;;;-2.40;99.90;;;;;;5152073;27;20035;-76
2021/12/07 06:12:35;;;;;;;89.80;35.35;;;-2.30;99.90;;;;;;5152420;27;20023;-76
2021/12/07 06:15:01;;;;;;;84.32;33.80;;;-2.40;99.90;;;;;;5153677;27;20023;-76
2021/12/07 06:17:26;;;;;;;75.45;30.33;;;-2.40;99.90;;;;;;5152981;27;20015;-76
2021/12/07 06:19:52;;;;;;;73.13;29.55;;;-2.40;99.90;;;;;;5152841;27;20026;-76
2021/12/07 06:22:18;;;;;;;70.10;27.65;;;-2.40;99.90;;;;;;5154218;27;20057;-76
2021/12/07 06:24:44;;;;;;;73.05;26.45;;;-2.40;99.90;;;;;;5156776;27;20022;-76
2021/12/07 06:27:09;;;;;;;66.20;27.45;;;-2.40;99.90;;;;;;5158245;27;20050;-76
2021/12/07 06:29:35;;;;;;;78.05;28.15;;;-2.30;99.90;;;;;;5156821;27;20065;-76
2021/12/07 06:32:01;;;;;;;74.18;26.98;;;-2.30;99.90;;;;;;5113797;27;20033;-76
2021/12/07 06:34:26;;;;;;;75.80;27.88;;;-2.20;99.90;;;;;;5050203;27;20501;-76
2021/12/07 06:36:52;;;;;;;66.72;26.25;;;-2.30;99.90;;;;;;5051258;28;20021;-76
2021/12/07 06:39:18;;;;;;;68.40;28.48;;;-2.20;99.90;;;;;;5051090;28;20401;-76
2021/12/07 06:41:44;;;;;;;67.90;27.52;;;-2.20;99.90;;;;;;5051187;28;20389;-76
2021/12/07 06:44:10;;;;;;;66.00;27.30;;;-2.20;99.90;;;;;;5052256;28;20029;-76
2021/12/07 06:46:36;;;;;;;67.07;27.65;;;-2.20;99.90;;;;;;5051982;28;20029;-75
2021/12/07 06:49:02;;;;;;;69.43;25.38;;;-2.20;99.90;;;;;;5053405;28;20523;-75
2021/12/07 06:51:28;;;;;;;67.40;24.83;;;-2.20;99.90;;;;;;5052245;28;20034;-76
2021/12/07 06:53:55;;;;;;;58.65;25.20;;;-2.30;99.90;;;;;;5049551;28;20125;-75
2021/12/07 06:56:20;;;;;;;56.17;22.92;;;-2.20;99.90;;;;;;5051220;28;20093;-75
2021/12/07 06:58:46;;;;;;;53.38;20.42;;;-2.20;99.90;;;;;;5051428;28;20103;-75
2021/12/07 07:01:12;;;;;;;56.55;20.63;;;-2.30;99.90;;;;;;5051655;28;20021;-75
2021/12/07 07:03:39;;;;;;;53.20;21.60;;;-2.30;99.90;;;;;;5052183;28;20029;-76
2021/12/07 07:06:05;;;;;;;52.25;20.75;;;-2.20;99.90;;;;;;5031096;27;20053;-75
2021/12/07 07:08:31;;;;;;;51.28;22.70;;;-2.20;99.90;;;;;;5030377;28;20076;-76
2021/12/07 07:10:57;;;;;;;48.17;23.02;;;-2.20;99.90;;;;;;5030269;28;20033;-75
2021/12/07 07:13:23;;;;;;;51.20;22.92;;;-2.20;99.90;;;;;;5031543;28;20104;-78
2021/12/07 07:15:48;;;;;;;57.30;22.60;;;-2.20;99.90;;;;;;5030937;28;20026;-78
2021/12/07 07:18:14;;;;;;;65.00;24.35;;;-2.10;99.90;;;;;;5030338;28;20104;-76
2021/12/07 07:20:40;;;;;;;63.65;24.63;;;-2.10;99.90;;;;;;5030044;28;20013;-77
2021/12/07 07:23:06;;;;;;;66.90;24.38;;;-2.00;99.90;;;;;;5030704;28;20366;-75
2021/12/07 07:25:32;;;;;;;59.75;24.00;;;-2.00;99.90;;;;;;5030364;28;20089;-76
2021/12/07 07:27:58;;;;;;;62.35;25.45;;;-1.90;99.90;;;;;;5030007;28;20025;-76
2021/12/07 07:30:24;;;;;;;91.20;33.10;;;-1.90;99.90;;;;;;5031448;28;20049;-76
2021/12/07 07:32:50;;;;;;;84.18;33.58;;;-1.90;99.90;;;;;;5035293;27;20497;-77
2021/12/07 07:35:16;;;;;;;84.47;34.67;;;-1.90;99.90;;;;;;5050879;27;20033;-76
2021/12/07 07:37:43;;;;;;;60.75;24.92;;;-1.90;99.90;;;;;;5051100;27;20490;-76
2021/12/07 07:40:14;;;;;;;51.42;23.63;;;-1.90;99.90;;;;;;5047623;28;20494;-76
2021/12/07 07:42:40;;;;;;;64.35;25.17;;;-1.90;99.90;;;;;;5048161;28;20025;-76
2021/12/07 07:45:06;;;;;;;60.90;21.27;;;-1.90;99.90;;;;;;5049613;28;20029;-76
2021/12/07 07:47:32;;;;;;;61.08;24.02;;;-1.90;99.90;;;;;;5050040;28;20373;-76
2021/12/07 07:49:58;;;;;;;64.80;23.40;;;-2.00;99.90;;;;;;5051441;28;20028;-76
2021/12/07 07:52:23;;;;;;;59.03;24.67;;;-2.00;99.90;;;;;;5050114;28;20045;-76
2021/12/07 07:54:49;;;;;;;62.28;23.00;;;-2.00;99.90;;;;;;5049434;28;20112;-77
2021/12/07 07:57:15;;;;;;;69.90;27.00;;;-2.00;99.90;;;;;;5048064;28;20024;-77
2021/12/07 07:59:40;;;;;;;64.25;23.55;;;-2.00;99.90;;;;;;5049249;28;20028;-77
2021/12/07 08:02:07;;;;;;;60.53;24.33;;;-2.00;99.90;;;;;;5049389;28;20025;-77
2021/12/07 08:04:33;;;;;;;68.78;25.50;;;-2.00;99.90;;;;;;5100747;27;20481;-77
2021/12/07 08:06:59;;;;;;;62.70;25.05;;;-2.00;99.90;;;;;;5155859;27;20472;-77
2021/12/07 08:09:25;;;;;;;61.53;24.17;;;-2.00;99.90;;;;;;5154425;27;20078;-77
2021/12/07 08:11:52;;;;;;;59.38;23.33;;;-2.00;99.90;;;;;;5156202;27;20027;-77
2021/12/07 08:14:17;;;;;;;64.70;23.77;;;-2.00;99.90;;;;;;5156117;27;20464;-77
2021/12/07 08:16:44;;;;;;;63.00;23.70;;;-1.90;99.90;;;;;;5154732;27;20023;-77
2021/12/07 08:19:10;;;;;;;63.30;25.10;;;-1.90;99.90;;;;;;5154753;27;20026;-77
2021/12/07 08:21:36;;;;;;;67.70;23.45;;;-1.90;99.90;;;;;;5154732;27;20072;-76
2021/12/07 08:24:02;;;;;;;72.03;25.10;;;-2.00;99.90;;;;;;5154102;27;20480;-77
2021/12/07 08:26:28;;;;;;;66.22;27.17;;;-1.90;99.90;;;;;;5153814;27;20495;-77
2021/12/07 08:28:56;;;;;;;66.05;23.67;;;-1.90;99.90;;;;;;5153064;27;20075;-77
2021/12/07 08:31:22;;;;;;;60.78;25.50;;;-1.90;99.90;;;;;;5153235;27;20472;-77
2021/12/07 08:33:48;;;;;;;62.05;24.48;;;-2.00;99.90;;;;;;5152973;27;20030;-77
2021/12/07 08:36:14;;;;;;;71.32;27.02;;;-1.90;99.90;;;;;;5153120;27;20011;-77
2021/12/07 08:38:40;;;;;;;69.82;26.42;;;-1.90;99.90;;;;;;5155056;27;20015;-77
2021/12/07 08:41:06;;;;;;;60.65;25.38;;;-1.90;99.90;;;;;;5155656;27;20433;-77
2021/12/07 08:43:35;;;;;;;71.28;24.88;;;-1.90;99.90;;;;;;5154288;27;20027;-77
2021/12/07 08:46:03;;;;;;;62.10;25.30;;;-1.90;99.90;;;;;;5153494;27;20567;-77
2021/12/07 08:48:29;;;;;;;58.78;23.50;;;-1.90;99.90;;;;;;5154015;27;20034;-77
2021/12/07 08:50:57;;;;;;;62.45;23.33;;;-1.90;99.90;;;;;;5155415;27;20041;-77
2021/12/07 08:53:25;;;;;;;61.83;23.88;;;-1.90;99.90;;;;;;5153971;27;20496;-77
2021/12/07 09:01:23;;;;;;;58.10;24.90;;;-1.70;99.90;;;;;;5155290;27;20037;-77
2021/12/07 09:03:50;;;;;;;50.15;22.77;;;-1.70;99.90;;;;;;5153809;27;20011;-77
2021/12/07 09:06:16;;;;;;;54.35;23.98;;;-1.70;99.90;;;;;;5153823;27;20051;-77
2021/12/07 09:08:42;;;;;;;58.65;24.27;;;-1.70;99.90;;;;;;5155049;27;20536;-77
2021/12/07 09:11:11;;;;;;;53.85;22.42;;;-1.60;99.90;;;;;;5155014;27;20034;-77
2021/12/07 09:13:37;;;;;;;56.40;27.02;;;-1.60;99.90;;;;;;5153701;27;20105;-77
2021/12/07 09:16:03;;;;;;;53.33;21.70;;;-1.60;99.90;;;;;;5155073;27;20019;-77
2021/12/07 09:18:30;;;;;;;58.55;25.27;;;-1.60;99.90;;;;;;5154851;27;20091;-77
2021/12/07 09:20:56;;;;;;;56.30;22.23;;;-1.60;99.90;;;;;;5154977;27;20048;-77
2021/12/07 09:23:22;;;;;;;55.30;21.75;;;-1.60;99.90;;;;;;5154814;27;20031;-77
2021/12/07 09:25:48;;;;;;;57.35;22.70;;;-1.60;99.90;;;;;;5153491;27;20019;-77
2021/12/07 09:28:14;;;;;;;62.30;23.83;;;-1.60;99.90;;;;;;5154815;27;20019;-77
2021/12/07 09:30:40;;;;;;;58.28;22.55;;;-1.60;99.90;;;;;;5154610;27;20034;-77
2021/12/07 09:33:06;;;;;;;45.97;21.60;;;-1.50;99.90;;;;;;5153419;27;20014;-77
2021/12/07 09:35:33;;;;;;;46.53;20.20;;;-1.50;99.90;;;;;;5153391;27;20381;-77
2021/12/07 09:38:00;;;;;;;52.22;20.77;;;-1.40;99.90;;;;;;5154737;27;20153;-77
2021/12/07 09:40:28;;;;;;;46.22;20.75;;;-1.40;99.90;;;;;;5153293;27;20015;-77
2021/12/07 09:42:55;;;;;;;50.67;21.10;;;-1.30;99.90;;;;;;5154642;27;20030;-77
2021/12/07 09:45:22;;;;;;;51.55;21.77;;;-1.30;99.90;;;;;;5153265;27;20018;-77
2021/12/07 09:47:48;;;;;;;50.85;21.88;;;-1.20;99.90;;;;;;5153315;27;20422;-77
2021/12/07 09:50:19;;;;;;;60.78;24.27;;;-1.20;99.90;;;;;;5154434;27;20035;-77
2021/12/07 09:52:46;;;;;;;56.72;25.27;;;-1.20;99.90;;;;;;5154343;27;20011;-77
2021/12/07 09:55:12;;;;;;;62.28;25.55;;;-1.30;99.90;;;;;;5154488;27;20509;-77
2021/12/07 09:57:39;;;;;;;64.97;28.83;;;-1.40;99.90;;;;;;5155473;27;20022;-77
2021/12/07 10:00:08;;;;;;;82.18;35.83;;;-1.50;99.90;;;;;;5157532;27;20428;-77
2021/12/07 10:02:33;;;;;;;67.82;26.80;;;-1.60;99.90;;;;;;5158688;27;20105;-77
2021/12/07 10:04:59;;;;;;;56.70;24.27;;;-1.60;99.90;;;;;;5157305;27;20138;-77
2021/12/07 10:07:24;;;;;;;56.50;24.77;;;-1.70;99.90;;;;;;5158597;27;20437;-77
2021/12/07 10:09:50;;;;;;;63.85;28.13;;;-1.70;99.90;;;;;;5157207;27;20069;-77
2021/12/07 10:12:21;;;;;;;68.55;26.42;;;-1.80;99.90;;;;;;5157274;27;20445;-77
2021/12/07 10:14:47;;;;;;;60.47;25.60;;;-1.80;99.90;;;;;;5157149;27;20057;-77
2021/12/07 10:17:13;;;;;;;58.72;25.15;;;-1.90;99.90;;;;;;5157176;27;20386;-77
2021/12/07 10:19:44;;;;;;;64.75;24.35;;;-1.80;99.90;;;;;;5157150;27;20071;-77
2021/12/07 10:22:19;;;;;;;51.53;22.63;;;-1.80;99.90;;;;;;5157436;27;20388;-77
2021/12/07 10:24:53;;;;;;;48.47;19.58;;;-1.80;99.90;;;;;;5141210;27;20468;-77
2021/12/07 10:27:39;;;;;;;66.57;26.52;;;-1.80;99.90;;;;;;5137431;27;20026;-77
2021/12/07 10:30:07;;;;;;;60.25;23.20;;;-1.80;99.90;;;;;;5137240;27;20045;-77
2021/12/07 10:32:33;;;;;;;64.88;23.67;;;-1.80;99.90;;;;;;5135384;27;20491;-77
2021/12/07 10:34:59;;;;;;;54.60;22.83;;;-1.90;99.90;;;;;;5134778;27;20015;-77
2021/12/07 10:37:26;;;;;;;56.88;24.67;;;-1.80;99.90;;;;;;5134158;27;20027;-77
2021/12/07 10:39:57;;;;;;;57.60;23.63;;;-1.80;99.90;;;;;;5132038;27;20380;-77
2021/12/07 10:42:29;;;;;;;46.90;21.55;;;-1.80;99.90;;;;;;5134183;27;20505;-77
2021/12/07 10:44:58;;;;;;;57.92;22.27;;;-1.80;99.90;;;;;;5135011;27;20052;-77
2021/12/07 10:47:24;;;;;;;55.42;25.35;;;-1.80;99.90;;;;;;5088654;27;20036;-77
2021/12/07 10:49:55;;;;;;;58.45;22.85;;;-1.80;99.90;;;;;;5050099;28;20029;-77
2021/12/07 10:52:30;;;;;;;48.42;20.75;;;-1.70;99.90;;;;;;5070797;27;20032;-76
2021/12/07 10:55:01;;;;;;;59.28;22.80;;;-1.80;99.90;;;;;;5093715;27;20028;-76
2021/12/07 10:57:32;;;;;;;52.13;23.65;;;-1.80;99.90;;;;;;5098307;27;20555;-77
2021/12/07 11:00:33;;;;;;;59.05;23.23;;;-1.80;99.90;;;;;;5049396;28;20170;-76
2021/12/07 11:03:12;;;;;;;62.17;26.88;;;-1.80;99.90;;;;;;5018684;27;20059;-76
2021/12/07 11:05:50;;;;;;;54.70;23.80;;;-1.90;99.90;;;;;;5114001;27;20017;-78
2021/12/07 11:08:18;;;;;;;60.97;23.55;;;-1.90;99.90;;;;;;5097864;27;20022;-76
2021/12/07 11:10:48;;;;;;;54.00;24.73;;;-1.90;99.90;;;;;;5103684;27;20110;-76
2021/12/07 11:13:25;;;;;;;55.88;22.75;;;-1.90;99.90;;;;;;5031649;27;20018;-76
2021/12/07 11:15:55;;;;;;;51.33;22.25;;;-1.80;99.90;;;;;;5029275;28;20060;-76
2021/12/07 11:18:26;;;;;;;53.60;20.95;;;-1.70;99.90;;;;;;5030898;28;20478;-76
2021/12/07 11:20:54;;;;;;;61.88;25.25;;;-1.80;99.90;;;;;;5058443;27;20033;-79
2021/12/07 11:23:26;;;;;;;52.50;22.33;;;-1.80;99.90;;;;;;5098898;27;20018;-77
2021/12/07 11:29:40;;;;;;;62.10;23.23;;;-1.80;99.90;;;;;;5076535;27;20368;-76
2021/12/07 11:31:46;;;;;;;66.50;29.70;;;-1.80;99.90;;;;;;5050380;27;20044;-78
2021/12/07 11:34:24;;;;;;;100.35;50.33;;;-1.80;99.90;;;;;;5054711;27;20039;-78
2021/12/07 11:36:53;;;;;;;81.28;36.67;;;-1.70;99.90;;;;;;5049741;27;20037;-78
2021/12/07 11:39:50;;;;;;;62.63;32.15;;;-1.70;99.90;;;;;;5050485;27;20096;-78
2021/12/07 11:42:16;;;;;;;55.83;27.58;;;-1.70;99.90;;;;;;5046685;27;20478;-78
2021/12/07 11:44:55;;;;;;;82.47;42.92;;;-1.70;99.90;;;;;;5049335;27;20033;-78
2021/12/07 11:47:31;;;;;;;109.68;67.50;;;-1.70;99.90;;;;;;5049989;27;20068;-77
2021/12/07 11:49:59;;;;;;;66.70;36.58;;;-1.70;99.90;;;;;;5050333;27;20082;-77
2021/12/07 11:52:25;;;;;;;108.45;58.35;;;-1.70;99.90;;;;;;5050396;27;20060;-78
2021/12/07 11:54:51;;;;;;;61.97;27.45;;;-1.60;99.90;;;;;;5050498;27;20071;-78
2021/12/07 11:57:18;;;;;;;86.32;44.03;;;-1.70;99.90;;;;;;5049437;27;20029;-78
2021/12/07 11:59:46;;;;;;;138.38;76.43;;;-1.70;99.90;;;;;;5050432;27;20071;-79
2021/12/07 12:02:12;;;;;;;124.68;66.00;;;-1.60;99.90;;;;;;5060246;27;20603;-77
2021/12/07 12:04:41;;;;;;;119.32;62.63;;;-1.70;99.90;;;;;;5095482;27;20485;-79
2021/12/07 12:07:09;;;;;;;66.80;35.03;;;-1.70;99.90;;;;;;5141025;27;20064;-78
2021/12/07 12:09:37;;;;;;;120.88;43.28;;;-1.80;99.90;;;;;;5155035;27;20029;-78
2021/12/07 12:12:25;;;;;;;83.35;29.65;;;-1.80;99.90;;;;;;5155047;27;20386;-78
2021/12/07 12:15:15;;;;;;;86.90;36.60;;;-1.80;99.90;;;;;;5153446;27;20023;-79
2021/12/07 12:18:01;;;;;;;60.03;24.05;;;-1.80;99.90;;;;;;5152974;27;20380;-79
2021/12/07 12:21:09;;;;;;;98.05;48.55;;;-1.90;99.90;;;;;;5129934;27;20034;-79
2021/12/07 12:23:50;;;;;;;69.15;28.58;;;-1.90;99.90;;;;;;5114502;27;20104;-79
2021/12/07 12:26:23;;;;;;;67.85;28.83;;;-1.90;99.90;;;;;;5049094;28;20037;-79
2021/12/07 12:28:49;;;;;;;96.88;33.08;;;-1.80;99.90;;;;;;5048290;28;20056;-80
2021/12/07 12:31:17;;;;;;;102.68;35.80;;;-2.00;99.90;;;;;;5048276;28;20043;-79
2021/12/07 12:33:49;;;;;;;70.85;29.77;;;-1.90;99.90;;;;;;5050086;27;20063;-79
2021/12/07 12:36:18;;;;;;;77.60;32.33;;;-1.90;99.90;;;;;;5049514;28;20071;-78
2021/12/07 12:38:48;;;;;;;71.18;25.70;;;-1.90;99.90;;;;;;5097703;27;20021;-79
2021/12/07 12:41:15;;;;;;;124.63;40.13;;;-1.90;99.90;;;;;;5030029;28;20054;-79
2021/12/07 12:43:50;;;;;;;130.10;41.88;;;-2.00;99.90;;;;;;5028325;28;20109;-78
2021/12/07 12:46:19;;;;;;;145.57;47.97;;;-1.90;99.90;;;;;;5028345;28;20042;-79
2021/12/07 12:48:57;;;;;;;156.85;62.45;;;-2.00;99.90;;;;;;5029692;28;20428;-79
2021/12/07 12:51:25;;;;;;;103.65;45.47;;;-2.00;99.90;;;;;;5029824;28;20044;-79
2021/12/07 12:53:52;;;;;;;144.10;58.05;;;-2.00;99.90;;;;;;5040271;28;20031;-79
2021/12/07 12:56:23;;;;;;;167.18;60.47;;;-2.00;99.90;;;;;;5065469;27;20033;-79
2021/12/07 12:58:56;;;;;;;109.53;38.20;;;-2.00;99.90;;;;;;5048909;27;20363;-78
2021/12/07 13:01:29;;;;;;;88.13;32.13;;;-2.00;99.90;;;;;;5055849;27;20482;-78
2021/12/07 13:04:05;;;;;;;;;;;-2.00;99.90;;;;;;5073203;27;20033;-79
2021/12/07 13:06:36;;;;;;;106.97;40.72;;;-2.10;99.90;;;;;;5096576;27;19909;-79
2021/12/07 13:09:09;;;;;;;110.97;45.05;;;-2.10;99.90;;;;;;5099207;27;20492;-78
2021/12/07 13:11:42;;;;;;;131.25;56.72;;;-2.10;99.90;;;;;;5095959;27;20127;-78
2021/12/07 13:14:21;;;;;;;251.32;98.00;;;-2.20;99.90;;;;;;5094236;27;20025;-79
2021/12/07 13:17:06;;;;;;;121.68;42.40;;;-2.20;99.90;;;;;;5099624;27;20541;-78
2021/12/07 13:19:52;;;;;;;83.38;32.10;;;-2.20;99.90;;;;;;5105604;27;20018;-79
2021/12/07 13:22:19;;;;;;;79.10;31.67;;;-2.30;99.90;;;;;;5049608;27;20131;-78
2021/12/07 13:24:46;;;;;;;115.95;39.95;;;-2.30;99.90;;;;;;5049044;28;20025;-78
2021/12/07 13:27:14;;;;;;;103.65;39.95;;;-2.20;99.90;;;;;;5047670;28;20036;-78
2021/12/07 13:29:51;;;;;;;236.20;92.88;;;-2.30;99.90;;;;;;5047100;27;20554;-79
2021/12/07 13:32:17;;;;;;;101.13;41.03;;;-2.30;99.90;;;;;;5046987;27;20029;-79
2021/12/07 13:34:43;;;;;;;223.10;84.97;;;-2.30;99.90;;;;;;5046215;28;20093;-78
2021/12/07 13:37:11;;;;;;;132.07;49.60;;;-2.20;99.90;;;;;;5048191;28;20031;-78
2021/12/07 13:39:39;;;;;;;76.25;28.50;;;-2.20;99.90;;;;;;5049397;28;20095;-78
2021/12/07 13:42:17;;;;;;;72.85;26.58;;;-2.20;99.90;;;;;;5045845;28;20021;-78
2021/12/07 13:45:04;;;;;;;71.07;26.45;;;-2.20;99.90;;;;;;5046554;28;20040;-78
2021/12/07 13:47:34;;;;;;;68.60;25.27;;;-2.20;99.90;;;;;;5046137;27;20025;-79
2021/12/07 13:50:07;;;;;;;67.38;27.38;;;-2.20;99.90;;;;;;5046233;28;20084;-78
2021/12/07 13:52:36;;;;;;;69.55;27.55;;;-2.20;99.90;;;;;;5047092;28;20049;-79
2021/12/07 13:55:06;;;;;;;68.07;26.17;;;-2.20;99.90;;;;;;5046362;28;20025;-78
2021/12/07 13:57:35;;;;;;;62.65;24.17;;;-2.20;99.90;;;;;;5046830;28;20434;-78
2021/12/07 14:00:16;;;;;;;68.65;23.85;;;-2.30;99.90;;;;;;5047732;28;20070;-79
2021/12/07 14:03:00;;;;;;;55.08;22.52;;;-2.30;99.90;;;;;;5047859;27;20116;-78
2021/12/07 14:05:29;;;;;;;72.78;26.88;;;-2.30;99.90;;;;;;5048559;28;20553;-79
2021/12/07 14:07:57;;;;;;;67.15;26.50;;;-2.30;99.90;;;;;;5046429;27;20033;-78